Time;durP1;ratioP1;P1;durP2;ratioP2;P2;SDS_P1;SDS_P2;PMS_P1;PMS_P2;Temp;Humidity;BMP_temperature;BMP_pressure;BME280_temperature;BME280_humidity;BME280_pressure;Samples;Min_cycle;Max_cycle;Signal;HPM_P1;HPM_P2
2022/01/18 00:00:07;;;;;;;;;;;;;;;2.44;84.53;98250.84;5018617;28;20029;-76
2022/01/18 00:02:33;;;;;;;;;;;;;;;2.46;84.58;98248.16;5040408;28;19974;-77
2022/01/18 00:04:59;;;;;;;;;;;;;;;2.40;85.10;98233.09;5029117;28;20010;-77
2022/01/18 00:07:25;;;;;;;;;;;;;;;2.38;85.64;98243.56;5023193;28;20027;-77
2022/01/18 00:09:51;;;;;;;;;;;;;;;2.33;85.60;98242.28;5017028;28;19955;-76
2022/01/18 00:12:54;;;;;;;;;;;;;;;2.29;85.71;98241.72;5025215;28;19993;-77
2022/01/18 00:18:05;;;;;;;;;;;;;;;2.32;85.89;98233.69;5024127;28;19961;-77
2022/01/18 00:20:57;;;;;;;;;;;;;;;2.34;85.88;98241.34;5021770;28;19968;-75
2022/01/18 00:23:24;;;;;;;;;;;;;;;2.35;85.71;98236.06;5023469;28;19956;-75
2022/01/18 00:26:09;;;;;;;;;;;;;;;2.37;85.57;98238.50;5025883;28;20034;-76
2022/01/18 00:28:53;;;;;;;;;;;;;;;2.38;85.87;98229.81;5024345;28;19960;-76
2022/01/18 00:34:06;;;;;;;;;;;;;;;2.42;85.78;98238.97;5025437;28;19964;-75
2022/01/18 00:39:13;;;;;;;;;;;;;;;2.43;85.98;98254.38;5027342;28;19963;-74
2022/01/18 00:41:39;;;;;;;;;;;;;;;2.44;85.98;98260.41;5020221;28;19976;-75
2022/01/18 00:44:06;;;;;;;;;;;;;;;2.44;86.06;98250.84;5023387;28;19961;-74
2022/01/18 00:46:31;;;;;;;;;;;;;;;2.46;86.05;98255.91;5024256;28;20073;-74
2022/01/18 00:49:00;;;;;;;;;;;;;;;2.49;85.97;98249.66;5027723;28;19961;-74
2022/01/18 00:51:27;;;;;;;;;;;;;;;2.49;86.03;98258.25;5037363;28;19976;-75
2022/01/18 00:53:56;;;;;;;;;;;;;;;2.50;86.00;98262.50;5051107;28;19967;-75
2022/01/18 00:56:26;;;;;;;;;;;;;;;2.53;86.25;98264.03;5052969;28;19954;-74
2022/01/18 00:58:52;;;;;;;;;;;;;;;2.53;86.27;98257.06;5061512;28;19964;-76
2022/01/18 01:01:19;;;;;;;;;;;;;;;2.54;86.14;98250.94;5052533;28;20333;-74
2022/01/18 01:03:45;;;;;;;;;;;;;;;2.55;86.30;98254.34;5044665;28;19970;-74
2022/01/18 01:06:11;;;;;;;;;;;;;;;2.55;86.46;98260.34;5053314;28;19950;-74
2022/01/18 01:08:37;;;;;;;;;;;;;;;2.55;86.13;98256.94;5051374;28;19963;-75
2022/01/18 01:11:04;;;;;;;;;;;;;;;2.56;86.02;98262.00;5058955;28;20030;-75
2022/01/18 01:13:31;;;;;;;;;;;;;;;2.57;86.40;98260.25;5069771;28;19957;-74
2022/01/18 01:16:18;;;;;;;;;;;;;;;2.57;86.30;98265.41;5046764;28;19945;-75
2022/01/18 01:35:29;;;;;;;;;;;;;;;2.52;85.86;98270.97;5037622;28;19968;-75
2022/01/18 01:43:28;;;;;;;;;;;;;;;2.53;86.08;98264.84;5049087;28;20456;-75
2022/01/18 01:45:55;;;;;;;;;;;;;;;2.53;86.26;98266.59;5057300;28;19970;-74
2022/01/18 01:48:22;;;;;;;;;;;;;;;2.52;86.50;98275.31;5059978;28;19954;-74
2022/01/18 01:50:53;;;;;;;;;;;;;;;2.53;86.36;98269.19;5062783;28;19981;-74
2022/01/18 01:53:20;;;;;;;;;;;;;;;2.52;86.42;98275.31;5053201;28;19962;-75
2022/01/18 01:55:47;;;;;;;;;;;;;;;2.52;86.55;98276.16;5051267;28;19968;-74
2022/01/18 01:58:13;;;;;;;;;;;;;;;2.53;86.53;98269.19;5070244;28;20311;-76
2022/01/18 02:01:02;;;;;;;;;;;;;;;2.54;86.57;98271.69;5044675;28;19953;-75
2022/01/18 02:03:28;;;;;;;;;;;;;;;2.56;86.96;98276.72;5053967;28;19970;-75
2022/01/18 02:05:54;;;;;;;;;;;;;;;2.54;86.41;98279.44;5059889;28;19956;-75
2022/01/18 02:08:20;;;;;;;;;;;;;;;2.54;86.65;98281.19;5061980;28;20039;-75
2022/01/18 02:10:46;;;;;;;;;;;;;;;2.55;86.86;98272.50;5045893;28;20040;-75
2022/01/18 02:13:13;;;;;;;;;;;;;;;2.55;87.10;98275.91;5057800;28;19957;-74
2022/01/18 02:15:46;;;;;;;;;;;;;;;2.55;87.13;98262.94;5053110;28;19963;-75
2022/01/18 02:23:40;;;;;;;;;;;;;;;2.58;86.99;98285.19;5057975;28;19955;-74
2022/01/18 02:26:06;;;;;;;;;;;;;;;2.58;86.86;98278.25;5061215;28;20052;-75
2022/01/18 02:28:32;;;;;;;;;;;;;;;2.59;87.50;98285.06;5063981;28;19964;-74
2022/01/18 02:30:58;;;;;;;;;;;;;;;2.58;86.98;98280.00;5053144;28;20040;-75
2022/01/18 02:33:24;;;;;;;;;;;;;;;2.58;87.33;98280.84;5052977;28;19993;-76
2022/01/18 02:35:50;;;;;;;;;;;;;;;2.57;86.99;98284.38;5067722;28;19970;-76
2022/01/18 02:38:16;;;;;;;;;;;;;;;2.58;87.26;98282.59;5041556;28;19951;-75
2022/01/18 02:40:42;;;;;;;;;;;;;;;2.57;87.38;98276.59;5045905;28;19959;-76
2022/01/18 02:45:55;;;;;;;;;;;;;;;2.57;87.07;98274.00;5048392;28;20318;-75
2022/01/18 02:48:21;;;;;;;;;;;;;;;2.57;87.10;98268.81;5056130;28;19977;-76
2022/01/18 02:50:48;;;;;;;;;;;;;;;2.55;87.29;98269.91;5054681;28;20433;-76
2022/01/18 02:53:14;;;;;;;;;;;;;;;2.52;87.15;98270.13;5054016;28;19964;-76
2022/01/18 02:55:40;;;;;;;;;;;;;;;2.50;87.49;98275.44;5050528;28;19952;-76
2022/01/18 02:58:10;;;;;;;;;;;;;;;2.50;87.69;98277.19;5067919;28;20333;-77
2022/01/18 03:03:12;;;;;;;;;;;;;;;2.51;87.39;98278.84;5062850;28;20432;-77
2022/01/18 03:03:29;;;;;;;;;;;;;;;2.51;87.40;98277.09;5062756;28;20410;-75
2022/01/18 03:05:55;;;;;;;;;;;;;;;2.51;87.55;98284.84;5053202;28;19953;-75
2022/01/18 03:08:21;;;;;;;;;;;;;;;2.52;87.30;98281.34;5042430;28;19961;-74
2022/01/18 03:10:47;;;;;;;;;;;;;;;2.53;87.51;98282.16;5054093;28;19956;-76
2022/01/18 03:13:13;;;;;;;;;;;;;;;2.54;87.47;98283.78;5053313;28;20019;-75
2022/01/18 03:15:39;;;;;;;;;;;;;;;2.55;87.72;98272.50;5057159;28;19998;-75
2022/01/18 03:18:08;;;;;;;;;;;;;;;2.55;87.79;98277.66;5057425;28;19983;-75
2022/01/18 03:20:35;;;;;;;;;;;;;;;2.56;87.60;98285.31;5055151;28;19968;-75
2022/01/18 03:23:01;;;;;;;;;;;;;;;2.56;87.45;98279.31;5051180;28;19980;-75
2022/01/18 03:28:04;;;;;;;;;;;;;;;2.57;87.75;98280.97;5054219;28;19963;-75
2022/01/18 03:30:33;;;;;;;;;;;;;;;2.52;86.69;98283.94;5062269;28;20449;-75
2022/01/18 03:32:59;;;;;;;;;;;;;;;2.39;87.82;98273.72;5051177;28;20305;-75
2022/01/18 03:35:25;;;;;;;;;;;;;;;2.35;88.28;98274.06;5052494;28;19952;-75
2022/01/18 03:37:51;;;;;;;;;;;;;;;2.35;88.41;98271.47;5052493;28;19958;-76
2022/01/18 03:40:18;;;;;;;;;;;;;;;2.33;88.50;98275.94;5066229;28;19953;-76
2022/01/18 03:42:47;;;;;;;;;;;;;;;2.35;88.49;98272.31;5051620;28;20429;-75
2022/01/18 03:45:23;;;;;;;;;;;;;;;2.37;88.42;98270.41;5055352;28;19962;-76
2022/01/18 03:47:49;;;;;;;;;;;;;;;2.40;88.36;98264.16;5052660;28;19946;-75
2022/01/18 03:50:16;;;;;;;;;;;;;;;2.42;88.13;98275.22;5044306;28;19958;-75
2022/01/18 03:52:43;;;;;;;;;;;;;;;2.43;88.24;98264.72;5048877;28;19979;-75
2022/01/18 03:55:10;;;;;;;;;;;;;;;2.45;87.86;98272.38;5057968;28;19954;-76
2022/01/18 03:57:36;;;;;;;;;;;;;;;2.48;88.05;98274.75;5053826;28;19964;-76
2022/01/18 04:00:03;;;;;;;;;;;;;;;2.50;87.94;98285.81;5060229;28;20431;-76
2022/01/18 04:02:30;;;;;;;;;;;;;;;2.52;88.01;98286.50;5051219;28;20401;-76
2022/01/18 04:04:56;;;;;;;;;;;;;;;2.51;88.11;98279.66;5044926;28;19959;-75
2022/01/18 04:07:22;;;;;;;;;;;;;;;2.52;88.06;98283.94;5051263;28;20058;-77
2022/01/18 04:09:48;;;;;;;;;;;;;;;2.51;88.20;98274.50;5045041;28;19957;-76
2022/01/18 04:12:13;;;;;;;;;;;;;;;2.52;88.17;98276.16;5053112;28;20042;-76
2022/01/18 04:14:39;;;;;;;;;;;;;;;2.53;88.06;98279.56;5053683;28;19976;-76
2022/01/18 04:17:14;;;;;;;;;;;;;;;2.51;88.22;98269.31;5045352;28;20015;-76
2022/01/18 04:27:51;;;;;;;;;;;;;;;2.50;88.13;98282.38;5057356;28;19961;-74
2022/01/18 04:30:16;;;;;;;;;;;;;;;2.50;88.06;98288.41;5056958;28;19986;-74
2022/01/18 04:32:42;;;;;;;;;;;;;;;2.50;88.06;98280.63;5056717;28;19984;-75
2022/01/18 04:35:08;;;;;;;;;;;;;;;2.52;88.24;98291.69;5044419;28;19984;-75
2022/01/18 04:37:34;;;;;;;;;;;;;;;2.53;88.40;98293.31;5065803;28;19971;-74
2022/01/18 04:40:07;;;;;;;;;;;;;;;2.53;88.19;98290.72;5066068;28;19961;-74
2022/01/18 04:50:46;;;;;;;;;;;;;;;2.56;88.47;98289.66;4991872;28;1807055;-74
2022/01/18 04:53:12;;;;;;;;;;;;;;;2.56;88.53;98294.84;5050434;28;20323;-74
2022/01/18 04:55:38;;;;;;;;;;;;;;;2.56;88.90;98293.09;5052822;28;19969;-74
2022/01/18 04:58:04;;;;;;;;;;;;;;;2.57;88.63;98297.31;5061712;28;20041;-74
2022/01/18 05:00:30;;;;;;;;;;;;;;;2.58;88.69;98296.38;5054993;28;20004;-74
2022/01/18 05:02:56;;;;;;;;;;;;;;;2.58;88.85;98296.38;5043276;28;19967;-74
2022/01/18 05:05:31;;;;;;;;;;;;;;;2.58;88.84;98293.81;5060413;28;20443;-74
2022/01/18 05:07:59;;;;;;;;;;;;;;;2.59;88.77;98292.84;5057754;28;20400;-74
2022/01/18 05:10:28;;;;;;;;;;;;;;;2.57;88.27;98297.31;5049392;28;19959;-74
2022/01/18 05:12:55;;;;;;;;;;;;;;;2.55;88.89;98296.63;5049159;28;19972;-75
2022/01/18 05:23:06;;;;;;;;;;;;;;;2.54;89.11;98291.53;5042146;28;19983;-74
2022/01/18 05:25:32;;;;;;;;;;;;;;;2.53;89.07;98289.91;5054889;28;20342;-74
2022/01/18 05:27:59;;;;;;;;;;;;;;;2.51;88.66;98287.44;5059246;28;19968;-74
2022/01/18 05:30:26;;;;;;;;;;;;;;;2.49;88.55;98293.69;5052950;28;19962;-74
2022/01/18 05:32:53;;;;;;;;;;;;;;;2.47;88.10;98291.22;5057228;28;19964;-74
2022/01/18 05:35:19;;;;;;;;;;;;;;;2.47;88.18;98296.41;5044939;28;19955;-74
2022/01/18 05:37:46;;;;;;;;;;;;;;;2.44;87.92;98291.47;5055235;28;20081;-74
2022/01/18 05:40:12;;;;;;;;;;;;;;;2.42;87.83;98291.59;5057409;28;19988;-74
2022/01/18 05:42:38;;;;;;;;;;;;;;;2.40;87.78;98297.84;5042066;28;19979;-75
2022/01/18 05:45:06;;;;;;;;;;;;;;;2.37;87.49;98291.13;5051814;28;19955;-75
2022/01/18 05:47:33;;;;;;;;;;;;;;;2.35;87.99;98302.53;5041709;28;19945;-75
2022/01/18 05:49:59;;;;;;;;;;;;;;;2.33;87.71;98302.69;5059107;28;19956;-75
2022/01/18 05:52:25;;;;;;;;;;;;;;;2.31;87.85;98299.38;5060075;28;19988;-75
2022/01/18 05:54:51;;;;;;;;;;;;;;;2.32;87.94;98307.97;5052030;28;19959;-76
2022/01/18 05:57:17;;;;;;;;;;;;;;;2.32;88.09;98305.38;5042471;28;19947;-75
2022/01/18 05:59:46;;;;;;;;;;;;;;;2.33;88.27;98307.00;5059764;28;20000;-75
2022/01/18 06:07:55;;;;;;;;;;;;;;;2.31;88.51;98301.97;5065945;28;20331;-75
2022/01/18 06:10:21;;;;;;;;;;;;;;;2.31;88.44;98304.56;5031899;28;20323;-75
2022/01/18 06:12:47;;;;;;;;;;;;;;;2.29;88.32;98298.69;5045149;28;19965;-76
2022/01/18 06:15:14;;;;;;;;;;;;;;;2.28;88.26;98302.19;5061460;28;19957;-75
2022/01/18 06:17:40;;;;;;;;;;;;;;;2.27;88.37;98305.75;5064336;28;19952;-75
2022/01/18 06:20:06;;;;;;;;;;;;;;;2.26;88.52;98306.66;5059974;28;20025;-75
2022/01/18 06:22:32;;;;;;;;;;;;;;;2.23;88.42;98305.16;5053842;28;19976;-74
2022/01/18 06:24:58;;;;;;;;;;;;;;;2.22;88.38;98305.25;5055891;28;19959;-75
2022/01/18 06:27:24;;;;;;;;;;;;;;;2.18;88.70;98304.69;5046591;28;20322;-75
2022/01/18 06:29:50;;;;;;;;;;;;;;;2.12;88.56;98301.72;5056606;28;19958;-76
2022/01/18 06:32:16;;;;;;;;;;;;;;;2.08;89.00;98308.94;5066718;28;20006;-76
2022/01/18 06:34:43;;;;;;;;;;;;;;;2.08;89.26;98306.34;5038403;28;19967;-76
2022/01/18 06:37:09;;;;;;;;;;;;;;;2.11;89.35;98310.44;5053774;28;19956;-76
2022/01/18 06:39:35;;;;;;;;;;;;;;;2.11;89.34;98311.28;5052980;28;20321;-75
2022/01/18 06:42:01;;;;;;;;;;;;;;;2.13;89.40;98319.75;5054460;28;19967;-75
2022/01/18 06:44:26;;;;;;;;;;;;;;;2.15;89.45;98317.03;5065957;28;19975;-75
2022/01/18 06:46:53;;;;;;;;;;;;;;;2.16;89.38;98321.25;5053657;28;20340;-75
2022/01/18 06:49:19;;;;;;;;;;;;;;;2.14;89.20;98318.81;5055526;28;20411;-75
2022/01/18 06:51:45;;;;;;;;;;;;;;;2.12;89.98;98322.44;5056950;28;19975;-75
2022/01/18 06:54:15;;;;;;;;;;;;;;;2.08;89.91;98321.88;5067471;28;19984;-76
2022/01/18 06:56:47;;;;;;;;;;;;;;;2.07;89.64;98322.78;5045858;28;19971;-77
2022/01/18 06:59:16;;;;;;;;;;;;;;;2.05;90.06;98321.28;5053756;28;20412;-73
2022/01/18 07:01:42;;;;;;;;;;;;;;;2.05;89.85;98322.09;5056264;28;19955;-74
2022/01/18 07:04:08;;;;;;;;;;;;;;;2.06;90.08;98323.75;5063939;28;20067;-74
2022/01/18 07:06:34;;;;;;;;;;;;;;;2.07;90.41;98327.16;5052658;28;19964;-75
2022/01/18 07:09:01;;;;;;;;;;;;;;;2.07;90.46;98333.16;5045417;28;19963;-76
2022/01/18 07:11:27;;;;;;;;;;;;;;;2.08;90.63;98341.72;5054567;28;20434;-76
2022/01/18 07:13:52;;;;;;;;;;;;;;;2.10;90.68;98342.44;5072520;28;19974;-75
2022/01/18 07:16:19;;;;;;;;;;;;;;;2.13;90.62;98348.22;5052840;28;20004;-76
2022/01/18 07:18:44;;;;;;;;;;;;;;;2.15;90.97;98340.34;5054872;28;19962;-76
2022/01/18 07:21:10;;;;;;;;;;;;;;;2.18;90.76;98355.63;5049732;28;20419;-75
2022/01/18 07:23:37;;;;;;;;;;;;;;;2.19;91.00;98359.88;5060003;28;19975;-76
2022/01/18 07:26:04;;;;;;;;;;;;;;;2.20;91.03;98367.50;5060214;28;19959;-76
2022/01/18 07:28:30;;;;;;;;;;;;;;;2.21;91.30;98358.00;5043297;28;19989;-75
2022/01/18 07:30:56;;;;;;;;;;;;;;;2.23;91.87;98358.69;5061444;28;19949;-76
2022/01/18 07:33:22;;;;;;;;;;;;;;;2.25;92.56;98362.00;5064379;28;19955;-76
2022/01/18 07:35:48;;;;;;;;;;;;;;;2.28;92.69;98360.91;5042722;28;19962;-75
2022/01/18 07:38:17;;;;;;;;;;;;;;;2.31;92.54;98365.84;5049956;28;19950;-76
2022/01/18 07:40:44;;;;;;;;;;;;;;;2.36;92.67;98366.34;5065161;28;19950;-75
2022/01/18 07:43:10;;;;;;;;;;;;;;;2.39;92.50;98366.94;5065242;28;19962;-75
2022/01/18 07:45:36;;;;;;;;;;;;;;;2.42;92.98;98371.84;5053551;28;19958;-76
2022/01/18 07:48:03;;;;;;;;;;;;;;;2.42;93.35;98374.44;5047687;28;20411;-76
2022/01/18 07:50:29;;;;;;;;;;;;;;;2.44;93.47;98375.16;5050150;28;19966;-76
2022/01/18 07:52:56;;;;;;;;;;;;;;;2.46;93.11;98369.03;5067223;28;19976;-76
2022/01/18 07:55:22;;;;;;;;;;;;;;;2.50;93.12;98378.19;5049751;28;19954;-76
2022/01/18 07:57:47;;;;;;;;;;;;;;;2.52;93.17;98377.16;5054437;28;19964;-76
2022/01/18 08:00:15;;;;;;;;;;;;;;;2.53;92.87;98376.22;5059191;28;19996;-76
2022/01/18 08:02:42;;;;;;;;;;;;;;;2.53;92.83;98378.78;5047878;28;20351;-76
2022/01/18 08:05:09;;;;;;;;;;;;;;;2.57;92.39;98394.94;5048083;28;19963;-78
2022/01/18 08:07:35;;;;;;;;;;;;;;;2.59;93.28;98398.22;5040842;28;19965;-77
2022/01/18 08:10:02;;;;;;;;;;;;;;;2.60;92.23;98392.09;5053777;28;20315;-77
2022/01/18 08:12:28;;;;;;;;;;;;;;;2.61;92.20;98397.16;5058536;28;19959;-77
2022/01/18 08:15:00;;;;;;;;;;;;;;;2.64;92.73;98394.31;5067735;28;19959;-78
2022/01/18 08:17:26;;;;;;;;;;;;;;;2.66;91.60;98389.03;5049037;28;19947;-78
2022/01/18 08:19:52;;;;;;;;;;;;;;;2.66;90.73;98396.78;5052686;28;19961;-78
2022/01/18 08:22:18;;;;;;;;;;;;;;;2.62;90.56;98395.38;5054942;28;20010;-78
2022/01/18 08:24:44;;;;;;;;;;;;;;;2.58;91.38;98405.19;5051062;28;20351;-77
2022/01/18 08:27:10;;;;;;;;;;;;;;;2.54;91.69;98403.78;5043962;28;19957;-78
2022/01/18 08:29:36;;;;;;;;;;;;;;;2.53;91.98;98404.69;5057061;28;19990;-78
2022/01/18 08:32:04;;;;;;;;;;;;;;;2.56;91.90;98407.06;5051064;28;19949;-78
2022/01/18 08:34:30;;;;;;;;;;;;;;;2.59;91.98;98404.22;5045805;28;19955;-78
2022/01/18 08:36:56;;;;;;;;;;;;;;;2.60;91.44;98403.28;5053122;28;20418;-78
2022/01/18 08:39:22;;;;;;;;;;;;;;;2.63;91.97;98404.81;5058835;28;19953;-78
2022/01/18 08:41:49;;;;;;;;;;;;;;;2.68;91.34;98397.50;5055322;28;19958;-78
2022/01/18 08:44:15;;;;;;;;;;;;;;;2.71;91.13;98402.44;5056846;28;20427;-78
2022/01/18 08:46:41;;;;;;;;;;;;;;;2.78;91.50;98405.38;5058905;28;19961;-77
2022/01/18 08:49:07;;;;;;;;;;;;;;;2.88;91.31;98403.72;5060060;28;19956;-77
2022/01/18 08:51:33;;;;;;;;;;;;;;;2.97;90.97;98404.75;5045289;28;20081;-78
2022/01/18 08:54:00;;;;;;;;;;;;;;;3.07;90.88;98408.28;5058485;28;19973;-77
2022/01/18 08:56:26;;;;;;;;;;;;;;;3.19;89.22;98401.28;5050882;28;20294;-78
2022/01/18 08:58:52;;;;;;;;;;;;;;;3.32;89.11;98401.09;5056281;28;20007;-78
2022/01/18 09:01:18;;;;;;;;;;;;;;;3.40;88.87;98396.97;5026953;28;19957;-78
2022/01/18 09:03:44;;;;;;;;;;;;;;;3.46;88.86;98403.41;5059307;28;19982;-77
2022/01/18 09:06:14;;;;;;;;;;;;;;;3.49;88.75;98392.81;5057848;28;20297;-78
2022/01/18 09:08:41;;;;;;;;;;;;;;;3.53;88.96;98404.56;5066116;28;19974;-77
2022/01/18 09:11:10;;;;;;;;;;;;;;;3.57;89.00;98402.53;5052030;28;20328;-79
2022/01/18 09:13:37;;;;;;;;;;;;;;;3.67;88.74;98403.44;5034094;28;19979;-78
2022/01/18 09:16:05;;;;;;;;;;;;;;;3.78;88.41;98402.53;5054495;28;19954;-77
2022/01/18 09:18:32;;;;;;;;;;;;;;;4.03;100.00;98409.97;5053239;28;19957;-78
2022/01/18 09:20:58;;;;;;;;;;;;;;;4.63;97.65;98404.91;5052298;28;19971;-77
2022/01/18 09:23:24;;;;;;;;;;;;;;;4.99;87.82;98407.88;5045812;28;19972;-77
2022/01/18 09:25:50;;;;;;;;;;;;;;;5.13;86.13;98404.06;5050021;28;19997;-77
2022/01/18 09:28:16;;;;;;;;;;;;;;;5.25;84.36;98392.59;5064387;28;19994;-77
2022/01/18 09:30:42;;;;;;;;;;;;;;;5.34;84.01;98403.94;5044542;28;20416;-77
2022/01/18 09:33:08;;;;;;;;;;;;;;;5.41;82.83;98404.22;5054270;28;20377;-77
2022/01/18 09:35:34;;;;;;;;;;;;;;;5.57;83.16;98395.88;5061200;28;20309;-76
2022/01/18 09:38:01;;;;;;;;;;;;;;;5.72;82.60;98402.28;5062390;28;19960;-78
2022/01/18 09:40:27;;;;;;;;;;;;;;;5.94;82.09;98393.34;5044764;28;20398;-77
2022/01/18 09:42:56;;;;;;;;;;;;;;;6.19;80.53;98396.34;5050295;28;20365;-76
2022/01/18 09:45:24;;;;;;;;;;;;;;;6.43;80.71;98403.69;5054387;28;20319;-76
2022/01/18 09:47:51;;;;;;;;;;;;;;;6.67;80.94;98398.75;5066862;28;19957;-76
2022/01/18 09:50:21;;;;;;;;;;;;;;;6.80;79.34;98402.81;5058986;28;19986;-76
2022/01/18 09:52:52;;;;;;;;;;;;;;;6.75;74.88;98392.00;5044356;28;19975;-77
2022/01/18 09:55:19;;;;;;;;;;;;;;;6.35;70.44;98393.97;5056849;28;19967;-77
2022/01/18 09:57:45;;;;;;;;;;;;;;;6.05;75.92;98397.63;5057843;28;19960;-77
2022/01/18 10:00:11;;;;;;;;;;;;;;;5.87;73.12;98393.09;5056548;28;20481;-77
2022/01/18 10:02:37;;;;;;;;;;;;;;;5.59;73.35;98391.34;5056568;28;19966;-76
2022/01/18 10:05:21;;;;;;;;;;;;;;;5.32;74.47;98387.66;5052841;28;19986;-76
2022/01/18 10:07:55;;;;;;;;;;;;;;;5.18;77.02;98390.66;5058289;28;20401;-76
2022/01/18 10:10:33;;;;;;;;;;;;;;;5.12;76.24;98392.00;5057253;28;19953;-77
2022/01/18 10:12:59;;;;;;;;;;;;;;;5.01;75.80;98392.94;5065540;28;20031;-76
2022/01/18 10:15:25;;;;;;;;;;;;;;;5.03;77.71;98385.03;5057234;28;19969;-75
2022/01/18 10:18:01;;;;;;;;;;;;;;;5.19;75.74;98382.72;5046594;28;20049;-76
2022/01/18 10:20:27;;;;;;;;;;;;;;;5.38;77.61;98381.91;5075882;28;19957;-76
2022/01/18 10:22:53;;;;;;;;;;;;;;;5.38;75.07;98383.69;5052323;28;20323;-76
2022/01/18 10:25:28;;;;;;;;;;;;;;;5.36;75.68;98383.00;5049571;28;19950;-76
2022/01/18 10:27:55;;;;;;;;;;;;;;;5.47;77.17;98378.47;5072147;28;20415;-76
2022/01/18 10:30:32;;;;;;;;;;;;;;;5.51;76.38;98380.81;5036672;28;19966;-76
2022/01/18 10:33:02;;;;;;;;;;;;;;;5.56;76.42;98373.41;5064264;28;19957;-76
2022/01/18 10:35:28;;;;;;;;;;;;;;;5.53;74.54;98374.50;5053897;28;19956;-76
2022/01/18 10:37:54;;;;;;;;;;;;;;;5.52;75.35;98369.44;5061147;28;19967;-79
2022/01/18 10:40:19;;;;;;;;;;;;;;;5.30;74.71;98381.75;5055127;28;19969;-77
2022/01/18 10:42:49;;;;;;;;;;;;;;;5.18;76.35;98383.66;5065410;28;19998;-76
2022/01/18 10:45:27;;;;;;;;;;;;;;;5.12;76.54;98376.41;5052706;28;20440;-76
2022/01/18 10:47:57;;;;;;;;;;;;;;;5.12;77.87;98376.41;5043546;28;20318;-76
2022/01/18 10:50:24;;;;;;;;;;;;;;;5.14;77.49;98369.28;5040342;28;19959;-77
2022/01/18 10:52:52;;;;;;;;;;;;;;;5.22;77.39;98363.41;5050888;28;20406;-77
2022/01/18 10:55:20;;;;;;;;;;;;;;;5.21;77.34;98354.78;5054001;28;19955;-76
2022/01/18 10:57:46;;;;;;;;;;;;;;;5.07;77.26;98356.00;5055477;28;19959;-77
2022/01/18 11:00:16;;;;;;;;;;;;;;;4.94;76.48;98352.03;5058481;28;19964;-76
2022/01/18 11:02:43;;;;;;;;;;;;;;;4.80;77.18;98359.25;5049806;28;19985;-77
2022/01/18 11:05:15;;;;;;;;;;;;;;;4.67;78.26;98343.09;5052288;28;19984;-77
2022/01/18 11:07:42;;;;;;;;;;;;;;;4.67;78.42;98332.69;5062186;28;19962;-76
2022/01/18 11:10:08;;;;;;;;;;;;;;;4.67;77.79;98343.91;5056475;28;20402;-76
2022/01/18 11:12:56;;;;;;;;;;;;;;;4.68;77.29;98339.53;5063657;28;19957;-76
2022/01/18 11:15:24;;;;;;;;;;;;;;;4.64;77.33;98335.53;5036372;28;19955;-76
2022/01/18 11:17:56;;;;;;;;;;;;;;;4.76;78.92;98325.88;5067081;28;20434;-77
2022/01/18 11:20:22;;;;;;;;;;;;;;;5.04;78.78;98324.25;5064582;28;20319;-77
2022/01/18 11:22:49;;;;;;;;;;;;;;;5.44;78.22;98313.69;5054997;28;19972;-77
2022/01/18 11:25:16;;;;;;;;;;;;;;;5.79;77.31;98317.44;5047858;28;19978;-79
2022/01/18 11:27:47;;;;;;;;;;;;;;;6.09;73.97;98319.03;5067019;28;19959;-77
2022/01/18 11:30:13;;;;;;;;;;;;;;;6.00;71.09;98314.69;5056043;28;19966;-76
2022/01/18 11:32:40;;;;;;;;;;;;;;;5.67;69.50;98318.59;5056663;28;19953;-76
2022/01/18 11:35:09;;;;;;;;;;;;;;;5.42;72.05;98330.41;5046615;28;20332;-77
2022/01/18 11:37:40;;;;;;;;;;;;;;;5.28;72.58;98336.84;5053936;28;19959;-75
2022/01/18 11:40:07;;;;;;;;;;;;;;;5.03;72.09;98328.63;5060500;28;19961;-77
2022/01/18 11:42:41;;;;;;;;;;;;;;;4.87;73.42;98329.19;5056462;28;20320;-77
2022/01/18 11:45:28;;;;;;;;;;;;;;;4.71;73.44;98325.47;5047024;28;19970;-76
2022/01/18 11:48:01;;;;;;;;;;;;;;;4.61;74.55;98322.84;5044907;28;19950;-77
2022/01/18 11:50:33;;;;;;;;;;;;;;;4.71;75.66;98326.28;5050534;28;19968;-77
2022/01/18 11:53:17;;;;;;;;;;;;;;;4.82;75.94;98322.72;5046636;28;19960;-76
2022/01/18 11:55:45;;;;;;;;;;;;;;;4.91;75.40;98318.50;5053083;28;19961;-77
2022/01/18 11:58:12;;;;;;;;;;;;;;;4.95;75.13;98310.28;5071464;28;19951;-77
2022/01/18 12:00:52;;;;;;;;;;;;;;;4.95;74.04;98312.88;5046595;28;19974;-77
2022/01/18 12:03:21;;;;;;;;;;;;;;;4.87;73.60;98310.97;5056453;28;20049;-76
2022/01/18 12:05:48;;;;;;;;;;;;;;;4.76;73.57;98299.88;5051975;28;19957;-76
2022/01/18 12:08:29;;;;;;;;;;;;;;;4.75;72.57;98298.25;5060402;28;19957;-78
2022/01/18 12:10:55;;;;;;;;;;;;;;;4.79;74.91;98294.41;5034601;28;19950;-76
2022/01/18 12:13:26;;;;;;;;;;;;;;;4.83;73.61;98295.75;5055384;28;19959;-77
2022/01/18 12:15:55;;;;;;;;;;;;;;;4.73;71.44;98300.16;5045521;28;19968;-77
2022/01/18 12:18:22;;;;;;;;;;;;;;;4.65;72.51;98299.03;5053399;28;19967;-77
2022/01/18 12:20:49;;;;;;;;;;;;;;;4.67;71.93;98294.53;5063598;28;20394;-78
2022/01/18 12:23:18;;;;;;;;;;;;;;;4.74;73.57;98294.81;5040032;28;19963;-78
2022/01/18 12:34:29;;;;;;;;;;;;;;;4.72;74.00;98299.31;5044775;28;19960;-77
2022/01/18 12:36:55;;;;;;;;;;;;;;;4.70;72.14;98283.03;5034532;28;19958;-77
2022/01/18 12:39:22;;;;;;;;;;;;;;;4.70;71.85;98285.63;5061806;28;20475;-77
2022/01/18 12:41:53;;;;;;;;;;;;;;;4.70;71.43;98290.00;5042464;28;19951;-76
2022/01/18 12:44:20;;;;;;;;;;;;;;;4.68;72.90;98292.75;5047025;28;20329;-77
2022/01/18 12:46:56;;;;;;;;;;;;;;;4.66;72.01;98279.91;5060004;28;20354;-77
2022/01/18 12:49:23;;;;;;;;;;;;;;;4.70;73.88;98292.63;5054639;28;19965;-77
2022/01/18 12:51:53;;;;;;;;;;;;;;;4.72;72.79;98283.72;5059238;28;19973;-77
2022/01/18 12:54:19;;;;;;;;;;;;;;;4.76;72.16;98276.47;5034477;28;19952;-77
2022/01/18 12:56:45;;;;;;;;;;;;;;;4.83;73.40;98285.38;5052436;28;19979;-77
2022/01/18 12:59:11;;;;;;;;;;;;;;;4.84;72.61;98280.03;5056339;28;19958;-78
2022/01/18 13:01:37;;;;;;;;;;;;;;;4.85;70.46;98273.91;5034337;28;20048;-76
2022/01/18 13:04:06;;;;;;;;;;;;;;;4.82;71.56;98281.13;5053724;28;19968;-77
2022/01/18 13:06:33;;;;;;;;;;;;;;;4.80;71.04;98280.44;5061901;28;20326;-76
2022/01/18 13:09:00;;;;;;;;;;;;;;;4.76;71.39;98290.28;5058924;28;19957;-77
2022/01/18 13:11:30;;;;;;;;;;;;;;;4.62;70.18;98269.88;5047466;28;19966;-76
2022/01/18 13:14:04;;;;;;;;;;;;;;;4.52;70.25;98280.28;5051426;28;20033;-76
2022/01/18 13:27:11;;;;;;;;;;;;;;;4.75;71.55;98273.06;5047553;28;19959;-77
2022/01/18 13:29:37;;;;;;;;;;;;;;;4.68;69.70;98272.78;5058138;28;19963;-76
2022/01/18 13:32:03;;;;;;;;;;;;;;;4.59;70.82;98270.97;5057805;28;19959;-77
2022/01/18 13:34:33;;;;;;;;;;;;;;;4.54;71.86;98277.56;5051417;28;19961;-77
2022/01/18 13:37:02;;;;;;;;;;;;;;;4.48;72.07;98274.53;5065186;28;19955;-77
2022/01/18 13:39:31;;;;;;;;;;;;;;;4.46;69.73;98267.81;5058343;28;20315;-78
2022/01/18 13:42:01;;;;;;;;;;;;;;;4.40;70.75;98257.97;5050292;28;20411;-76
2022/01/18 13:44:28;;;;;;;;;;;;;;;4.41;71.44;98267.38;5050379;28;19970;-77
2022/01/18 13:46:54;;;;;;;;;;;;;;;4.43;72.57;98268.06;5060482;28;19956;-77
2022/01/18 13:49:24;;;;;;;;;;;;;;;4.44;72.82;98256.75;5063058;28;19970;-77
2022/01/18 13:52:00;;;;;;;;;;;;;;;4.41;72.02;98259.59;5042685;28;19982;-77
2022/01/18 13:54:28;;;;;;;;;;;;;;;4.34;72.89;98259.31;5058904;28;19967;-77
2022/01/18 13:56:55;;;;;;;;;;;;;;;4.34;73.05;98261.91;5056905;28;19957;-77
2022/01/18 13:59:25;;;;;;;;;;;;;;;4.27;71.66;98255.63;5062748;28;19955;-77
2022/01/18 14:01:51;;;;;;;;;;;;;;;4.19;72.09;98266.66;5054547;28;19960;-76
2022/01/18 14:04:19;;;;;;;;;;;;;;;4.19;73.49;98266.66;5052744;28;19973;-77
2022/01/18 14:06:46;;;;;;;;;;;;;;;4.20;73.46;98257.09;5063694;28;20340;-77
2022/01/18 14:09:13;;;;;;;;;;;;;;;4.23;73.88;98252.47;5060180;28;19964;-77
2022/01/18 14:11:47;;;;;;;;;;;;;;;4.31;73.90;98258.78;5036961;28;19957;-77
2022/01/18 14:14:42;;;;;;;;;;;;;;;4.40;74.35;98252.78;5040961;28;19948;-77
2022/01/18 14:17:12;;;;;;;;;;;;;;;4.51;74.02;98251.81;5035844;28;19952;-77
2022/01/18 14:19:40;;;;;;;;;;;;;;;4.55;73.92;98250.59;5057069;28;19965;-77
2022/01/18 14:22:15;;;;;;;;;;;;;;;4.56;73.01;98249.66;5051699;28;20395;-77
2022/01/18 14:24:42;;;;;;;;;;;;;;;4.54;72.70;98244.59;5049307;28;19973;-77
2022/01/18 14:27:09;;;;;;;;;;;;;;;4.45;72.26;98243.63;5062788;28;19948;-77
2022/01/18 14:29:41;;;;;;;;;;;;;;;4.35;72.60;98241.97;5060029;28;19955;-77
2022/01/18 14:32:08;;;;;;;;;;;;;;;4.31;73.01;98245.78;5036510;28;20315;-77